createdAt,value
2018-04-29T00:01:46.975Z,14.00
2018-04-29T00:04:14.545Z,13.90
2018-04-29T00:06:42.103Z,13.90
2018-04-29T00:09:09.626Z,13.90
2018-04-29T00:11:37.902Z,13.90
2018-04-29T00:14:06.178Z,13.80
2018-04-29T00:16:34.450Z,13.70
2018-04-29T00:19:02.715Z,13.70
2018-04-29T00:21:30.222Z,13.60
2018-04-29T00:23:57.722Z,13.60
2018-04-29T00:26:25.213Z,13.50
2018-04-29T00:28:52.705Z,13.40
2018-04-29T00:31:20.198Z,13.40
2018-04-29T00:33:47.793Z,13.40
2018-04-29T00:36:15.281Z,13.30
2018-04-29T00:38:42.833Z,13.40
2018-04-29T00:41:10.335Z,13.40
2018-04-29T00:43:38.626Z,13.10
2018-04-29T00:46:06.753Z,13.10
2018-04-29T00:48:34.245Z,13.20
2018-04-29T00:51:02.517Z,13.30
2018-04-29T00:53:30.791Z,13.20
2018-04-29T00:55:59.080Z,13.20
2018-04-29T00:58:26.585Z,13.10
2018-04-29T01:00:54.198Z,13.10
2018-04-29T01:03:21.702Z,13.10
2018-04-29T01:05:49.207Z,13.10
2018-04-29T01:08:16.699Z,13.00
2018-04-29T01:10:44.333Z,13.00
2018-04-29T01:13:11.831Z,13.00
2018-04-29T01:15:39.323Z,13.00
2018-04-29T01:18:07.729Z,13.10
2018-04-29T01:20:35.225Z,13.00
2018-04-29T01:23:02.733Z,13.10
2018-04-29T01:25:30.275Z,13.10
2018-04-29T01:27:58.654Z,13.20
2018-04-29T01:30:26.920Z,13.20
2018-04-29T01:32:55.188Z,13.20
2018-04-29T01:35:23.456Z,13.20
2018-04-29T01:37:51.760Z,13.20
2018-04-29T01:40:19.315Z,13.10
2018-04-29T01:42:46.875Z,13.20
2018-04-29T01:45:14.393Z,13.20
2018-04-29T01:47:41.973Z,13.20
2018-04-29T01:50:10.248Z,13.20
2018-04-29T01:52:38.640Z,13.20
2018-04-29T01:55:06.129Z,13.10
2018-04-29T01:57:33.619Z,13.10
2018-04-29T02:00:01.137Z,13.10
2018-04-29T02:02:28.623Z,13.00
2018-04-29T02:04:56.210Z,13.00
2018-04-29T02:07:24.500Z,13.10
2018-04-29T02:09:52.050Z,13.10
2018-04-29T02:12:20.303Z,13.30
2018-04-29T02:14:47.816Z,13.30
2018-04-29T02:17:15.349Z,13.20
2018-04-29T02:19:42.844Z,13.20
2018-04-29T02:22:10.352Z,13.20
2018-04-29T02:24:38.616Z,13.20
2018-04-29T02:27:06.886Z,13.30
2018-04-29T02:29:35.184Z,13.30
2018-04-29T02:32:02.673Z,13.20
2018-04-29T02:34:30.173Z,13.30
2018-04-29T02:36:58.493Z,13.20
2018-04-29T02:39:26.045Z,13.10
2018-04-29T02:41:53.526Z,13.20
2018-04-29T02:44:21.038Z,13.10
2018-04-29T02:46:49.333Z,13.20
2018-04-29T02:49:17.016Z,13.10
2018-04-29T02:51:44.531Z,13.20
2018-04-29T02:54:12.018Z,13.20
2018-04-29T02:56:39.514Z,13.20
2018-04-29T02:59:07.010Z,13.20
2018-04-29T03:01:34.516Z,13.20
2018-04-29T03:04:02.015Z,13.10
2018-04-29T03:06:29.575Z,13.10
2018-04-29T03:08:57.071Z,13.10
2018-04-29T03:11:24.576Z,13.10
2018-04-29T03:13:52.845Z,13.00
2018-04-29T03:16:21.102Z,12.90
2018-04-29T03:18:48.677Z,12.80
2018-04-29T03:21:16.936Z,12.80
2018-04-29T03:23:44.436Z,12.80
2018-04-29T03:26:11.933Z,12.80
2018-04-29T03:28:39.439Z,12.90
2018-04-29T03:31:06.942Z,12.80
2018-04-29T03:33:34.425Z,12.80
2018-04-29T03:36:01.932Z,12.80
2018-04-29T03:38:29.450Z,12.70
2018-04-29T03:40:57.730Z,12.70
2018-04-29T03:43:26.110Z,12.60
2018-04-29T03:45:54.387Z,12.60
2018-04-29T03:48:21.895Z,12.60
2018-04-29T03:50:49.381Z,12.60
2018-04-29T03:53:17.642Z,12.60
2018-04-29T03:55:45.125Z,12.50
2018-04-29T03:58:25.410Z,12.50
2018-04-29T04:01:04.652Z,12.40
2018-04-29T04:03:44.253Z,12.50
2018-04-29T04:06:12.498Z,12.40
2018-04-29T04:08:39.996Z,12.30
2018-04-29T04:11:07.507Z,12.40
2018-04-29T04:13:36.493Z,12.30
2018-04-29T04:16:04.000Z,12.30
2018-04-29T04:18:31.502Z,12.30
2018-04-29T04:20:59.019Z,12.30
2018-04-29T04:23:26.514Z,12.30
2018-04-29T04:25:54.004Z,12.40
2018-04-29T04:28:22.269Z,12.50
2018-04-29T04:30:50.544Z,12.50
2018-04-29T04:33:18.842Z,12.50
2018-04-29T04:35:46.404Z,12.40
2018-04-29T04:38:13.922Z,12.50
2018-04-29T04:40:41.516Z,12.50
2018-04-29T04:43:09.076Z,12.50
2018-04-29T04:45:36.583Z,12.60
2018-04-29T04:48:04.093Z,12.50
2018-04-29T04:50:31.646Z,12.60
2018-04-29T04:52:59.147Z,12.70
2018-04-29T04:55:26.653Z,12.70
2018-04-29T04:57:54.923Z,12.70
2018-04-29T05:00:23.181Z,12.80
2018-04-29T05:02:50.687Z,12.80
2018-04-29T05:05:18.223Z,12.90
2018-04-29T05:07:45.775Z,12.90
2018-04-29T05:10:13.376Z,13.00
2018-04-29T05:12:40.871Z,13.00
2018-04-29T05:15:09.141Z,13.20
2018-04-29T05:17:36.630Z,13.10
2018-04-29T05:20:04.126Z,13.20
2018-04-29T05:22:31.661Z,13.30
2018-04-29T05:24:59.213Z,13.40
2018-04-29T05:27:26.736Z,13.50
2018-04-29T05:29:55.004Z,13.50
2018-04-29T05:32:23.265Z,13.50
2018-04-29T05:34:50.749Z,13.50
2018-04-29T05:37:19.020Z,13.60
2018-04-29T05:39:47.305Z,13.70
2018-04-29T05:42:14.813Z,13.60
2018-04-29T05:44:42.331Z,13.80
2018-04-29T05:47:09.848Z,13.90
2018-04-29T05:49:38.113Z,14.10
2018-04-29T05:52:05.620Z,14.00
2018-04-29T05:54:33.116Z,14.10
2018-04-29T05:57:00.606Z,14.20
2018-04-29T05:59:28.853Z,14.40
2018-04-29T06:01:56.363Z,14.40
2018-04-29T06:04:23.907Z,14.40
2018-04-29T06:06:51.471Z,14.40
2018-04-29T06:09:19.035Z,14.60
2018-04-29T06:11:46.588Z,14.70
2018-04-29T06:14:14.088Z,14.90
2018-04-29T06:16:41.570Z,15.30
2018-04-29T06:19:09.166Z,16.30
2018-04-29T06:21:36.665Z,17.30
2018-04-29T06:24:04.272Z,17.90
2018-04-29T06:26:31.789Z,18.90
2018-04-29T06:28:59.285Z,19.50
2018-04-29T06:31:26.799Z,20.00
2018-04-29T06:33:54.292Z,20.40
2018-04-29T06:36:22.666Z,21.50
2018-04-29T06:38:50.943Z,21.70
2018-04-29T06:41:19.194Z,20.30
2018-04-29T06:43:46.777Z,20.20
2018-04-29T06:46:14.305Z,20.40
2018-04-29T06:48:41.824Z,20.20
2018-04-29T06:51:09.347Z,20.20
2018-04-29T06:53:37.598Z,20.30
2018-04-29T06:56:05.087Z,20.20
2018-04-29T06:58:32.608Z,20.40
2018-04-29T07:01:00.099Z,20.60
2018-04-29T07:03:27.590Z,20.40
2018-04-29T07:05:55.088Z,20.90
2018-04-29T07:08:23.359Z,22.00
2018-04-29T07:10:51.628Z,21.40
2018-04-29T07:13:19.217Z,21.30
2018-04-29T07:15:46.777Z,20.90
2018-04-29T07:18:14.342Z,21.30
2018-04-29T07:20:41.837Z,20.90
2018-04-29T07:23:09.322Z,20.40
2018-04-29T07:25:37.577Z,20.70
2018-04-29T07:28:05.066Z,20.60
2018-04-29T07:30:33.336Z,21.70
2018-04-29T07:33:01.610Z,21.30
2018-04-29T07:35:29.870Z,21.30
2018-04-29T07:37:57.365Z,21.30
2018-04-29T07:40:24.870Z,21.70
2018-04-29T07:42:52.363Z,22.00
2018-04-29T07:45:19.873Z,21.30
2018-04-29T07:47:47.485Z,21.20
2018-04-29T07:50:14.965Z,21.90
2018-04-29T07:52:42.504Z,21.40
2018-04-29T07:55:10.732Z,21.80
2018-04-29T07:57:38.343Z,21.70
2018-04-29T08:00:05.841Z,21.90
2018-04-29T08:02:33.433Z,21.80
2018-04-29T08:05:01.715Z,22.10
2018-04-29T08:07:29.277Z,22.00
2018-04-29T08:10:10.237Z,22.40
2018-04-29T08:12:38.498Z,21.20
2018-04-29T08:15:06.759Z,21.20
2018-04-29T08:17:34.292Z,21.10
2018-04-29T08:20:01.824Z,21.50
2018-04-29T08:22:29.473Z,21.50
2018-04-29T08:24:57.835Z,22.10
2018-04-29T08:27:26.105Z,22.20
2018-04-29T08:29:54.358Z,22.20
2018-04-29T08:32:21.858Z,22.10
2018-04-29T08:34:49.338Z,21.40
2018-04-29T08:37:16.860Z,21.30
2018-04-29T08:39:44.360Z,21.60
2018-04-29T08:42:11.892Z,22.60
2018-04-29T08:44:39.386Z,22.80
2018-04-29T08:47:06.895Z,22.80
2018-04-29T08:49:34.381Z,22.70
2018-04-29T08:52:01.903Z,23.30
2018-04-29T08:54:29.398Z,23.70
2018-04-29T08:56:57.019Z,23.60
2018-04-29T08:59:24.574Z,23.50
2018-04-29T09:01:52.042Z,23.50
2018-04-29T09:04:19.538Z,23.40
2018-04-29T09:06:47.146Z,23.40
2018-04-29T09:09:14.670Z,23.20
2018-04-29T09:11:42.163Z,23.40
2018-04-29T09:14:09.681Z,23.50
2018-04-29T09:16:37.199Z,23.50
2018-04-29T09:19:04.720Z,23.60
2018-04-29T09:21:32.975Z,24.20
2018-04-29T09:24:00.492Z,24.20
2018-04-29T09:26:28.011Z,24.20
2018-04-29T09:28:55.498Z,24.10
2018-04-29T09:31:23.003Z,24.20
2018-04-29T09:33:50.512Z,24.60
2018-04-29T09:36:18.063Z,24.40
2018-04-29T09:38:45.600Z,24.80
2018-04-29T09:41:13.159Z,25.40
2018-04-29T09:43:40.685Z,25.50
2018-04-29T09:46:08.186Z,25.40
2018-04-29T09:48:35.776Z,25.20
2018-04-29T09:51:03.225Z,24.90
2018-04-29T09:53:30.730Z,25.10
2018-04-29T09:55:58.991Z,25.10
2018-04-29T09:58:27.255Z,25.10
2018-04-29T10:00:57.679Z,25.10
2018-04-29T10:03:25.142Z,25.10
2018-04-29T10:05:53.413Z,25.20
2018-04-29T10:08:20.908Z,25.20
2018-04-29T10:10:48.456Z,24.60
2018-04-29T10:13:16.015Z,24.10
2018-04-29T10:15:43.532Z,24.10
2018-04-29T10:18:11.029Z,24.10
2018-04-29T10:20:38.605Z,24.50
2018-04-29T10:23:06.105Z,24.50
2018-04-29T10:25:33.587Z,24.00
2018-04-29T10:28:01.866Z,23.80
2018-04-29T10:30:30.122Z,23.90
2018-04-29T10:32:57.622Z,23.90
2018-04-29T10:35:25.177Z,23.40
2018-04-29T10:37:52.708Z,23.20
2018-04-29T10:40:20.967Z,24.00
2018-04-29T10:42:49.210Z,24.20
2018-04-29T10:45:16.719Z,24.20
2018-04-29T10:47:44.210Z,24.40
2018-04-29T10:50:11.738Z,24.30
2018-04-29T10:52:39.294Z,24.20
2018-04-29T10:55:07.562Z,24.00
2018-04-29T10:57:35.812Z,23.90
2018-04-29T11:00:04.119Z,24.20
2018-04-29T11:02:31.630Z,24.20
2018-04-29T11:04:59.128Z,24.00
2018-04-29T11:07:26.654Z,24.20
2018-04-29T11:09:54.928Z,24.40
2018-04-29T11:12:22.525Z,24.30
2018-04-29T11:14:50.019Z,24.70
2018-04-29T11:17:17.515Z,24.50
2018-04-29T11:19:45.828Z,24.80
2018-04-29T11:22:13.426Z,24.80
2018-04-29T11:24:41.624Z,25.40
2018-04-29T11:27:09.916Z,25.30
2018-04-29T11:29:37.423Z,25.30
2018-04-29T11:32:04.907Z,25.10
2018-04-29T11:34:33.173Z,25.70
2018-04-29T11:37:00.682Z,25.60
2018-04-29T11:39:28.233Z,25.80
2018-04-29T11:42:06.996Z,26.20
2018-04-29T11:44:34.575Z,25.90
2018-04-29T11:47:02.834Z,25.80
2018-04-29T11:49:30.333Z,25.80
2018-04-29T11:51:57.869Z,25.50
2018-04-29T11:54:26.113Z,25.70
2018-04-29T11:56:53.611Z,25.60
2018-04-29T11:59:21.128Z,25.60
2018-04-29T12:01:48.804Z,25.60
2018-04-29T12:04:16.309Z,25.60
2018-04-29T12:06:43.831Z,25.70
2018-04-29T12:09:12.082Z,26.30
2018-04-29T12:11:39.571Z,26.30
2018-04-29T12:14:07.122Z,25.90
2018-04-29T12:16:35.399Z,26.30
2018-04-29T12:19:03.748Z,26.30
2018-04-29T12:21:31.241Z,26.20
2018-04-29T12:23:58.799Z,26.50
2018-04-29T12:26:26.285Z,26.20
2018-04-29T12:28:53.901Z,26.00
2018-04-29T12:31:22.144Z,25.80
2018-04-29T12:33:49.630Z,25.80
2018-04-29T12:36:17.906Z,25.90
2018-04-29T12:38:46.179Z,25.90
2018-04-29T12:41:14.484Z,25.80
2018-04-29T12:43:41.987Z,25.80
2018-04-29T12:46:09.570Z,26.00
2018-04-29T12:48:37.860Z,25.70
2018-04-29T12:51:05.411Z,25.60
2018-04-29T12:53:32.915Z,25.90
2018-04-29T12:56:00.441Z,26.00
2018-04-29T12:58:27.978Z,26.00
2018-04-29T13:00:56.269Z,25.60
2018-04-29T13:03:23.766Z,25.50
2018-04-29T13:05:51.367Z,25.70
2018-04-29T13:08:19.614Z,26.20
2018-04-29T13:10:47.202Z,26.10
2018-04-29T13:13:14.690Z,26.00
2018-04-29T13:15:42.198Z,25.80
2018-04-29T13:18:10.467Z,26.00
2018-04-29T13:20:38.741Z,26.20
2018-04-29T13:23:06.221Z,26.10
2018-04-29T13:25:33.783Z,26.10
2018-04-29T13:30:33.299Z,26.00
2018-04-29T13:33:00.793Z,25.90
2018-04-29T13:35:28.289Z,26.00
2018-04-29T13:37:56.564Z,26.30
2018-04-29T13:40:24.824Z,26.40
2018-04-29T13:42:52.414Z,26.30
2018-04-29T13:45:20.662Z,26.20
2018-04-29T13:47:48.164Z,26.20
2018-04-29T13:50:15.663Z,26.10
2018-04-29T13:52:43.160Z,26.20
2018-04-29T13:55:10.657Z,26.40
2018-04-29T13:57:38.204Z,26.30
2018-04-29T14:00:05.722Z,26.20
2018-04-29T14:02:33.982Z,26.50
2018-04-29T14:05:02.252Z,26.20
2018-04-29T14:07:29.746Z,26.20
2018-04-29T14:09:57.265Z,26.10
2018-04-29T14:12:24.840Z,26.20
2018-04-29T14:14:53.105Z,26.50
2018-04-29T14:17:21.391Z,26.70
2018-04-29T14:19:49.719Z,27.00
2018-04-29T14:22:17.973Z,27.20
2018-04-29T14:24:45.523Z,27.10
2018-04-29T14:27:13.013Z,27.10
2018-04-29T14:29:40.628Z,27.00
2018-04-29T14:32:08.176Z,27.00
2018-04-29T14:34:35.738Z,26.80
2018-04-29T14:37:03.311Z,26.80
2018-04-29T14:39:30.824Z,26.90
2018-04-29T14:41:58.322Z,26.80
2018-04-29T14:44:25.860Z,26.80
2018-04-29T14:46:53.373Z,26.80
2018-04-29T14:49:21.010Z,26.90
2018-04-29T14:51:48.497Z,27.10
2018-04-29T14:54:16.772Z,27.00
2018-04-29T14:56:44.262Z,26.90
2018-04-29T14:59:12.563Z,27.00
2018-04-29T15:01:40.053Z,26.90
2018-04-29T15:04:07.556Z,27.00
2018-04-29T15:06:35.111Z,26.80
2018-04-29T15:09:02.619Z,26.90
2018-04-29T15:11:30.142Z,26.90
2018-04-29T15:13:57.684Z,26.50
2018-04-29T15:16:25.193Z,26.10
2018-04-29T15:18:59.767Z,26.00
2018-04-29T15:21:27.269Z,26.00
2018-04-29T15:23:54.862Z,26.20
2018-04-29T15:26:23.141Z,26.40
2018-04-29T15:28:51.423Z,26.40
2018-04-29T15:31:19.005Z,26.30
2018-04-29T15:33:46.502Z,26.30
2018-04-29T15:36:14.004Z,26.40
2018-04-29T15:38:41.575Z,26.30
2018-04-29T15:41:09.090Z,26.40
2018-04-29T15:43:37.366Z,26.20
2018-04-29T15:46:05.664Z,26.30
2018-04-29T15:48:33.206Z,26.30
2018-04-29T15:51:01.469Z,26.30
2018-04-29T15:53:29.765Z,26.40
2018-04-29T15:55:58.025Z,26.50
2018-04-29T15:58:26.319Z,26.50
2018-04-29T16:00:53.818Z,26.40
2018-04-29T16:03:21.373Z,26.40
2018-04-29T16:05:48.912Z,26.20
2018-04-29T16:08:16.408Z,26.20
2018-04-29T16:10:44.012Z,26.10
2018-04-29T16:13:11.520Z,26.20
2018-04-29T16:15:39.029Z,26.20
2018-04-29T16:18:06.562Z,26.00
2018-04-29T16:20:34.973Z,26.00
2018-04-29T16:23:02.497Z,25.90
2018-04-29T16:25:41.860Z,25.90
2018-04-29T16:28:09.345Z,26.00
2018-04-29T16:30:38.547Z,25.60
2018-04-29T16:33:06.042Z,25.50
2018-04-29T16:35:33.590Z,25.40
2018-04-29T16:38:01.945Z,25.30
2018-04-29T16:40:29.432Z,25.30
2018-04-29T16:42:56.936Z,25.40
2018-04-29T16:45:24.557Z,25.40
2018-04-29T16:47:52.136Z,25.40
2018-04-29T16:50:20.330Z,25.30
2018-04-29T16:52:47.838Z,25.30
2018-04-29T16:55:15.511Z,25.20
2018-04-29T16:57:42.997Z,25.10
2018-04-29T17:00:10.632Z,25.10
2018-04-29T17:02:38.119Z,25.10
2018-04-29T17:05:05.821Z,25.00
2018-04-29T17:07:33.342Z,25.00
2018-04-29T17:10:00.840Z,24.90
2018-04-29T17:12:28.317Z,24.90
2018-04-29T17:14:55.816Z,25.00
2018-04-29T17:17:23.320Z,24.90
2018-04-29T17:19:50.816Z,24.80
2018-04-29T17:22:18.319Z,24.70
2018-04-29T17:24:45.801Z,24.70
2018-04-29T17:27:13.337Z,24.60
2018-04-29T17:29:40.833Z,24.60
2018-04-29T17:32:08.442Z,24.50
2018-04-29T17:34:36.019Z,24.40
2018-04-29T17:37:03.550Z,24.30
2018-04-29T17:39:31.829Z,24.10
2018-04-29T17:42:00.095Z,24.10
2018-04-29T17:44:28.357Z,24.00
2018-04-29T17:46:55.861Z,24.00
2018-04-29T17:49:23.361Z,24.00
2018-04-29T17:51:50.969Z,23.90
2018-04-29T17:54:18.554Z,23.70
2018-04-29T17:56:46.055Z,23.60
2018-04-29T17:59:14.443Z,23.40
2018-04-29T18:01:41.965Z,23.40
2018-04-29T18:04:10.970Z,23.20
2018-04-29T18:06:39.222Z,23.20
2018-04-29T18:09:06.718Z,23.10
2018-04-29T18:11:34.207Z,23.10
2018-04-29T18:14:01.708Z,23.10
2018-04-29T18:16:29.212Z,23.00
2018-04-29T18:18:56.720Z,23.00
2018-04-29T18:21:24.228Z,22.90
2018-04-29T18:23:51.760Z,22.90
2018-04-29T18:26:20.010Z,22.70
2018-04-29T18:28:48.257Z,22.60
2018-04-29T18:31:15.854Z,22.60
2018-04-29T18:33:44.103Z,22.50
2018-04-29T18:36:11.665Z,22.50
2018-04-29T18:38:39.241Z,22.50
2018-04-29T18:41:07.526Z,22.30
2018-04-29T18:43:35.016Z,22.30
2018-04-29T18:46:02.543Z,22.30
2018-04-29T18:48:30.131Z,22.20
2018-04-29T18:50:57.797Z,22.10
2018-04-29T18:53:25.935Z,22.10
2018-04-29T18:55:53.492Z,22.00
2018-04-29T18:58:21.003Z,22.00
2018-04-29T19:00:48.507Z,22.00
2018-04-29T19:03:16.017Z,22.00
2018-04-29T19:05:46.457Z,21.90
2018-04-29T19:08:14.057Z,21.80
2018-04-29T19:10:41.588Z,21.90
2018-04-29T19:13:09.866Z,21.70
2018-04-29T19:15:38.284Z,21.70
2018-04-29T19:18:05.786Z,21.60
2018-04-29T19:20:34.071Z,21.60
2018-04-29T19:23:02.359Z,21.60
2018-04-29T19:25:29.911Z,21.50
2018-04-29T19:27:58.262Z,21.70
2018-04-29T19:30:26.549Z,21.60
2018-04-29T19:32:54.860Z,21.50
2018-04-29T19:35:22.385Z,21.40
2018-04-29T19:37:50.633Z,21.50
2018-04-29T19:40:18.137Z,21.40
2018-04-29T19:42:46.232Z,21.40
2018-04-29T19:45:13.719Z,21.30
2018-04-29T19:47:41.227Z,21.40
2018-04-29T19:50:08.759Z,21.40
2018-04-29T19:52:37.017Z,21.30
2018-04-29T19:55:04.521Z,21.20
2018-04-29T19:57:32.060Z,21.30
2018-04-29T19:59:59.612Z,21.20
2018-04-29T20:02:27.084Z,21.20
2018-04-29T20:04:54.692Z,21.20
2018-04-29T20:07:22.297Z,21.20
2018-04-29T20:09:49.796Z,21.10
2018-04-29T20:12:17.304Z,21.10
2018-04-29T20:14:44.786Z,21.00
2018-04-29T20:17:12.325Z,20.90
2018-04-29T20:19:39.876Z,20.90
2018-04-29T20:22:07.378Z,20.90
2018-04-29T20:24:34.858Z,20.70
2018-04-29T20:27:03.127Z,20.70
2018-04-29T20:29:30.641Z,20.70
2018-04-29T20:31:58.153Z,20.70
2018-04-29T20:34:26.446Z,20.50
2018-04-29T20:36:53.985Z,20.50
2018-04-29T20:39:22.246Z,20.40
2018-04-29T20:41:49.744Z,20.30
2018-04-29T20:44:17.282Z,20.30
2018-04-29T20:46:45.549Z,20.20
2018-04-29T20:49:13.811Z,20.10
2018-04-29T20:51:41.319Z,20.00
2018-04-29T20:54:08.827Z,20.00
2018-04-29T20:56:37.144Z,20.00
2018-04-29T20:59:04.642Z,20.00
2018-04-29T21:01:32.177Z,20.20
2018-04-29T21:03:59.685Z,20.30
2018-04-29T21:06:27.943Z,20.20
2018-04-29T21:08:56.234Z,20.00
2018-04-29T21:11:24.505Z,19.90
2018-04-29T21:13:52.772Z,19.90
2018-04-29T21:16:21.063Z,19.90
2018-04-29T21:18:48.546Z,19.80
2018-04-29T21:21:16.073Z,19.70
2018-04-29T21:23:44.344Z,19.50
2018-04-29T21:26:12.604Z,19.40
2018-04-29T21:28:40.114Z,19.40
2018-04-29T21:31:07.615Z,19.30
2018-04-29T21:33:35.113Z,19.30
2018-04-29T21:36:02.594Z,19.20
2018-04-29T21:38:30.100Z,19.30
2018-04-29T21:40:57.669Z,19.20
2018-04-29T21:43:25.219Z,19.20
2018-04-29T21:45:53.589Z,19.20
2018-04-29T21:48:21.842Z,19.40
2018-04-29T21:50:49.338Z,19.30
2018-04-29T21:53:16.823Z,19.50
2018-04-29T21:55:44.299Z,19.50
2018-04-29T21:58:11.896Z,19.50
2018-04-29T22:00:40.158Z,19.40
2018-04-29T22:03:08.446Z,19.40
2018-04-29T22:05:36.830Z,19.50
2018-04-29T22:08:04.385Z,19.40
2018-04-29T22:10:31.901Z,19.60
2018-04-29T22:13:02.289Z,19.50
2018-04-29T22:15:29.780Z,19.60
2018-04-29T22:17:57.387Z,19.50
2018-04-29T22:20:24.901Z,19.30
2018-04-29T22:22:52.392Z,19.40
2018-04-29T22:25:20.663Z,19.40
2018-04-29T22:27:49.044Z,19.40
2018-04-29T22:30:16.534Z,19.40
2018-04-29T22:32:44.040Z,19.30
2018-04-29T22:35:12.292Z,19.30
2018-04-29T22:37:39.790Z,19.30
2018-04-29T22:40:07.366Z,19.20
2018-04-29T22:42:34.885Z,19.20
2018-04-29T22:45:03.148Z,19.20
2018-04-29T22:47:30.726Z,19.10
2018-04-29T22:49:58.994Z,19.20
2018-04-29T22:52:27.268Z,19.10
2018-04-29T22:54:55.538Z,19.00
2018-04-29T22:57:23.835Z,19.00
2018-04-29T22:59:51.324Z,19.00
2018-04-29T23:02:18.836Z,19.00
2018-04-29T23:04:47.096Z,19.20
2018-04-29T23:07:14.606Z,19.10
2018-04-29T23:09:42.135Z,19.20
2018-04-29T23:12:09.688Z,19.20
2018-04-29T23:14:37.247Z,19.30
2018-04-29T23:17:04.729Z,19.30
2018-04-29T23:19:32.230Z,19.30
2018-04-29T23:21:59.818Z,19.50
2018-04-29T23:24:28.077Z,19.30
2018-04-29T23:26:56.325Z,19.30
2018-04-29T23:29:23.843Z,19.30
2018-04-29T23:31:51.345Z,19.20
2018-04-29T23:34:18.835Z,19.20
2018-04-29T23:36:47.211Z,19.20
2018-04-29T23:39:15.483Z,19.10
2018-04-29T23:41:43.759Z,19.20
2018-04-29T23:44:12.014Z,19.10
2018-04-29T23:46:39.536Z,19.00
2018-04-29T23:49:07.055Z,19.10
2018-04-29T23:51:34.537Z,19.00
2018-04-29T23:54:02.051Z,18.90
2018-04-29T23:56:30.316Z,18.90
2018-04-29T23:58:57.801Z,18.80
